Time;durP1;ratioP1;P1;durP2;ratioP2;P2;SDS_P1;SDS_P2;PMS_P1;PMS_P2;Temp;Humidity;BMP_temperature;BMP_pressure;BME280_temperature;BME280_humidity;BME280_pressure;Samples;Min_cycle;Max_cycle;Signal;HPM_P1;HPM_P2
2022/01/12 00:02:06;;;;;;;17.90;8.77;;;3.60;79.40;;;;;;4890131;29;20025;-80
2022/01/12 00:04:32;;;;;;;16.70;8.13;;;3.70;78.20;;;;;;4877008;29;20028;-81
2022/01/12 00:06:58;;;;;;;13.88;7.47;;;3.80;78.00;;;;;;4873637;29;20021;-80
2022/01/12 00:09:23;;;;;;;12.35;7.75;;;3.80;77.90;;;;;;4877094;29;20058;-80
2022/01/12 00:11:49;;;;;;;12.98;7.68;;;3.90;77.40;;;;;;4890144;29;20047;-80
2022/01/12 00:14:16;;;;;;;13.73;7.53;;;4.00;76.80;;;;;;4893456;29;20025;-80
2022/01/12 00:16:46;;;;;;;11.43;7.10;;;3.90;77.30;;;;;;4892026;28;20025;-80
2022/01/12 00:19:12;;;;;;;14.23;7.38;;;3.90;76.60;;;;;;4891311;29;20472;-80
2022/01/12 00:21:38;;;;;;;11.68;6.45;;;3.90;75.80;;;;;;4873763;28;20021;-80
2022/01/12 00:24:04;;;;;;;8.63;5.45;;;3.90;75.20;;;;;;4891749;29;20486;-80
2022/01/12 00:34:42;;;;;;;8.80;4.25;;;4.10;74.30;;;;;;4946722;28;20021;-81
2022/01/12 00:37:08;;;;;;;9.45;5.65;;;4.20;73.40;;;;;;4894838;29;20128;-81
2022/01/12 00:39:34;;;;;;;13.75;5.38;;;4.40;72.80;;;;;;4880272;28;20389;-81
2022/01/12 00:41:59;;;;;;;11.35;5.53;;;4.40;72.90;;;;;;4881197;29;20053;-80
2022/01/12 00:44:35;;;;;;;9.82;4.22;;;4.40;72.10;;;;;;4878425;29;20048;-80
2022/01/12 00:47:06;;;;;;;7.85;4.70;;;4.50;71.50;;;;;;4882158;29;20025;-78
2022/01/12 00:49:32;;;;;;;7.97;4.30;;;4.70;71.00;;;;;;4889907;28;20052;-80
2022/01/12 00:51:58;;;;;;;6.60;4.10;;;4.60;71.00;;;;;;4886642;29;20071;-81
2022/01/12 00:54:25;;;;;;;7.18;4.22;;;4.60;71.30;;;;;;4890053;29;20029;-80
2022/01/12 00:56:51;;;;;;;9.75;4.95;;;4.60;70.70;;;;;;4887808;29;20028;-80
2022/01/12 00:59:16;;;;;;;10.95;5.88;;;4.60;70.80;;;;;;4889346;29;20020;-80
2022/01/12 01:01:43;;;;;;;10.10;4.93;;;4.60;70.60;;;;;;4872392;29;20029;-81
2022/01/12 01:04:09;;;;;;;7.60;4.78;;;4.50;72.90;;;;;;4882956;29;20025;-80
2022/01/12 01:06:58;;;;;;;9.65;5.88;;;4.60;71.30;;;;;;4877376;29;20035;-79
2022/01/12 01:09:33;;;;;;;9.38;5.63;;;4.50;71.00;;;;;;4882993;29;20032;-79
2022/01/12 01:12:09;;;;;;;12.48;5.53;;;4.40;72.40;;;;;;4876875;29;20077;-80
2022/01/12 01:25:57;;;;;;;10.05;5.82;;;4.50;71.40;;;;;;4875381;29;20510;-78
2022/01/12 01:28:36;;;;;;;13.35;5.85;;;4.50;71.70;;;;;;4882794;29;20017;-79
2022/01/12 01:31:46;;;;;;;9.93;5.63;;;4.40;72.70;;;;;;4875001;28;20189;-80
2022/01/12 01:34:19;;;;;;;8.85;4.78;;;4.40;72.00;;;;;;4887480;28;20099;-80
2022/01/12 01:36:51;;;;;;;9.15;5.10;;;4.30;71.80;;;;;;4874680;28;20025;-80
2022/01/12 01:39:40;;;;;;;8.15;5.22;;;4.30;70.80;;;;;;4861971;29;20045;-78
2022/01/12 01:42:19;;;;;;;9.75;5.45;;;4.40;72.10;;;;;;4877608;28;20032;-80
2022/01/12 01:53:39;;;;;;;12.50;4.28;;;4.00;73.70;;;;;;4882508;28;20059;-79
2022/01/12 01:56:21;;;;;;;7.80;4.68;;;3.90;72.20;;;;;;4890047;28;20483;-79
2022/01/12 01:59:20;;;;;;;11.80;5.93;;;4.10;71.20;;;;;;4881054;28;20029;-79
2022/01/12 02:01:55;;;;;;;10.00;6.07;;;4.10;71.60;;;;;;4861351;29;20025;-80
2022/01/12 02:07:42;;;;;;;8.90;5.35;;;3.90;73.60;;;;;;4893252;29;20040;-80
2022/01/12 02:10:25;;;;;;;9.82;5.18;;;4.20;71.00;;;;;;4878547;29;20163;-80
2022/01/12 02:13:05;;;;;;;7.50;4.53;;;4.20;72.00;;;;;;4882606;29;20029;-79
2022/01/12 02:15:31;;;;;;;8.48;5.15;;;4.10;71.60;;;;;;4875574;29;20029;-78
2022/01/12 02:35:13;;;;;;;7.07;4.90;;;4.00;72.90;;;;;;4894682;29;20028;-81
2022/01/12 02:35:34;;;;;;;9.65;4.57;;;4.40;70.60;;;;;;4879665;29;20519;-79
2022/01/12 02:41:08;;;;;;;7.38;4.22;;;4.40;70.60;;;;;;4878160;29;20412;-80
2022/01/12 02:50:34;;;;;;;10.85;5.00;;;4.40;70.10;;;;;;4886098;28;20033;-78
2022/01/12 02:54:45;;;;;;;6.65;3.88;;;4.60;69.80;;;;;;4892686;28;20029;-79
2022/01/12 02:57:16;;;;;;;6.90;4.50;;;4.70;69.50;;;;;;4889652;28;20036;-79
2022/01/12 03:00:52;;;;;;;6.53;4.57;;;4.70;69.40;;;;;;4879275;29;20033;-79
2022/01/12 03:03:02;;;;;;;7.53;4.47;;;4.70;69.80;;;;;;4891940;28;20033;-79
2022/01/12 03:05:47;;;;;;;10.10;2.95;;;4.70;69.70;;;;;;4894788;28;20087;-78
2022/01/12 03:08:44;;;;;;;9.13;3.95;;;4.60;69.70;;;;;;4871958;29;20037;-79
2022/01/12 03:11:22;;;;;;;10.02;4.00;;;4.60;70.70;;;;;;4892897;29;20443;-79
2022/01/12 03:13:54;;;;;;;8.73;4.25;;;4.60;70.10;;;;;;4882814;29;20025;-79
2022/01/12 03:16:43;;;;;;;7.13;3.55;;;4.60;70.60;;;;;;4878622;28;20444;-79
2022/01/12 03:19:27;;;;;;;30.35;4.30;;;4.50;70.00;;;;;;4884159;29;20247;-79
2022/01/12 03:22:00;;;;;;;8.75;4.45;;;4.50;69.80;;;;;;4889919;29;20064;-80
2022/01/12 03:24:29;;;;;;;10.13;3.42;;;4.60;69.90;;;;;;4862625;29;20095;-80
2022/01/12 03:27:14;;;;;;;7.18;3.03;;;4.60;69.70;;;;;;4879807;29;20374;-79
2022/01/12 03:29:51;;;;;;;7.00;4.68;;;4.60;69.10;;;;;;4890532;29;20020;-79
2022/01/12 03:32:47;;;;;;;6.55;4.18;;;4.60;69.20;;;;;;4886864;29;20033;-79
2022/01/12 03:38:43;;;;;;;9.57;4.50;;;4.50;69.80;;;;;;4858672;29;20076;-79
2022/01/12 03:41:13;;;;;;;8.97;4.17;;;4.50;69.90;;;;;;4877380;29;20039;-80
2022/01/12 03:44:18;;;;;;;5.82;4.00;;;4.40;70.90;;;;;;4886824;29;20288;-80
2022/01/12 03:46:47;;;;;;;7.93;5.10;;;4.30;70.80;;;;;;4890982;28;20033;-80
2022/01/12 03:49:56;;;;;;;;;;;;;;;;;;;;;
2022/01/12 03:52:42;;;;;;;8.18;4.72;;;4.30;71.50;;;;;;4875096;29;20053;-79
2022/01/12 03:58:48;;;;;;;8.30;4.45;;;4.20;71.50;;;;;;4929958;28;20032;-79
2022/01/12 04:01:18;;;;;;;9.48;4.32;;;4.10;71.60;;;;;;4878027;29;20099;-80
2022/01/12 04:04:04;;;;;;;4.75;3.42;;;4.00;71.70;;;;;;4882093;29;20029;-79
2022/01/12 04:09:40;;;;;;;8.20;4.35;;;4.20;71.10;;;;;;4883547;29;20099;-79
2022/01/12 04:12:07;;;;;;;9.13;4.97;;;4.20;71.30;;;;;;4877724;29;20045;-80
2022/01/12 04:14:45;;;;;;;7.72;4.78;;;4.20;71.60;;;;;;4891205;29;20056;-80
2022/01/12 04:17:14;;;;;;;11.65;5.25;;;4.20;72.20;;;;;;4871117;28;20033;-79
2022/01/12 04:19:40;;;;;;;6.18;4.22;;;4.10;72.70;;;;;;4891521;28;20028;-79
2022/01/12 04:25:05;;;;;;;9.32;5.03;;;3.90;72.90;;;;;;4891044;28;20052;-79
2022/01/12 04:27:46;;;;;;;8.03;4.53;;;4.00;73.10;;;;;;4885767;29;20044;-79
2022/01/12 04:30:56;;;;;;;9.70;5.05;;;3.90;74.00;;;;;;4889657;29;20296;-79
2022/01/12 04:33:09;;;;;;;6.53;4.53;;;3.90;73.60;;;;;;4880918;28;20611;-79
2022/01/12 04:35:39;;;;;;;7.35;4.05;;;3.90;74.40;;;;;;4875111;29;20037;-79
2022/01/12 04:38:09;;;;;;;7.32;3.42;;;3.90;74.20;;;;;;4867025;29;20103;-79
2022/01/12 04:40:43;;;;;;;6.68;4.32;;;3.90;74.20;;;;;;4874814;29;20393;-79
2022/01/12 04:43:31;;;;;;;8.68;5.05;;;3.90;74.10;;;;;;4883327;29;20033;-79
2022/01/12 04:51:14;;;;;;;7.03;4.90;;;3.90;73.50;;;;;;4876359;28;20049;-79
2022/01/12 04:53:44;;;;;;;7.18;4.68;;;4.00;72.90;;;;;;4885711;28;20029;-79
2022/01/12 04:56:15;;;;;;;7.25;4.28;;;4.00;72.40;;;;;;4891373;28;20029;-79
2022/01/12 04:58:41;;;;;;;7.00;4.80;;;4.00;71.80;;;;;;4887508;29;20040;-79
2022/01/12 05:01:23;;;;;;;6.65;4.18;;;4.10;71.20;;;;;;4891269;28;20087;-79
2022/01/12 05:07:07;;;;;;;6.90;3.67;;;4.00;71.20;;;;;;4887939;29;20060;-79
2022/01/12 05:15:32;;;;;;;4.28;2.95;;;4.00;70.40;;;;;;4950785;29;20043;-80
2022/01/12 05:17:58;;;;;;;6.28;3.97;;;4.00;70.10;;;;;;4948458;29;20117;-79
2022/01/12 05:20:25;;;;;;;5.80;4.05;;;4.10;69.50;;;;;;4911751;29;20052;-80
2022/01/12 05:23:08;;;;;;;6.07;3.75;;;4.10;69.00;;;;;;4883288;29;20040;-80
2022/01/12 05:25:37;;;;;;;8.98;5.00;;;4.10;67.70;;;;;;4874692;29;20028;-79
2022/01/12 05:28:06;;;;;;;5.40;3.60;;;4.20;68.80;;;;;;4883317;29;20090;-78
2022/01/12 05:33:20;;;;;;;5.90;4.20;;;4.30;66.60;;;;;;4871568;29;20537;-80
2022/01/12 05:35:46;;;;;;;7.03;3.95;;;4.20;66.10;;;;;;4874634;29;20095;-79
2022/01/12 05:38:16;;;;;;;5.38;3.75;;;4.20;65.90;;;;;;4886209;29;20049;-79
2022/01/12 05:40:46;;;;;;;4.88;3.78;;;4.40;64.60;;;;;;4895959;29;20028;-79
2022/01/12 05:43:14;;;;;;;9.68;5.05;;;4.40;64.70;;;;;;4886588;29;20524;-79
2022/01/12 05:45:45;;;;;;;16.45;8.18;;;4.30;68.30;;;;;;4896091;29;20108;-80
2022/01/12 05:51:16;;;;;;;7.10;3.70;;;4.10;68.10;;;;;;4895556;28;20040;-80
2022/01/12 05:53:51;;;;;;;8.75;3.90;;;4.00;67.40;;;;;;4878803;28;20043;-79
2022/01/12 05:56:19;;;;;;;6.05;3.42;;;4.10;66.00;;;;;;4876784;29;20024;-78
2022/01/12 05:58:45;;;;;;;6.10;3.83;;;4.20;65.40;;;;;;4870343;29;20092;-79
2022/01/12 06:01:20;;;;;;;8.13;4.32;;;4.10;66.10;;;;;;4879482;29;20120;-79
2022/01/12 06:03:57;;;;;;;6.18;3.63;;;4.00;65.80;;;;;;4888239;29;20039;-79
2022/01/12 06:09:17;;;;;;;11.25;4.60;;;4.10;66.20;;;;;;4892095;28;20037;-79
2022/01/12 06:11:46;;;;;;;7.15;3.78;;;4.00;65.80;;;;;;4891092;28;20048;-78
2022/01/12 06:14:18;;;;;;;5.78;3.92;;;3.90;66.30;;;;;;4890629;29;20029;-80
2022/01/12 06:16:50;;;;;;;3.88;3.45;;;3.90;67.00;;;;;;4892501;28;20602;-79
2022/01/12 06:19:16;;;;;;;4.35;3.13;;;3.90;65.90;;;;;;4890794;29;20031;-78
2022/01/12 06:21:54;;;;;;;5.40;3.17;;;4.00;65.80;;;;;;4891127;28;20033;-79
2022/01/12 06:24:20;;;;;;;5.35;3.58;;;4.00;65.50;;;;;;4884300;29;20029;-79
2022/01/12 06:26:54;;;;;;;6.20;3.78;;;3.90;66.30;;;;;;4880892;29;20631;-80
2022/01/12 06:29:48;;;;;;;11.75;5.25;;;3.80;67.00;;;;;;4891674;29;20067;-79
2022/01/12 06:32:18;;;;;;;7.88;4.10;;;3.80;67.40;;;;;;4887819;29;20436;-79
2022/01/12 06:34:53;;;;;;;6.47;3.92;;;3.80;66.20;;;;;;4893073;28;20024;-79
2022/01/12 06:37:22;;;;;;;8.38;4.28;;;3.80;66.50;;;;;;4887800;28;20547;-79
2022/01/12 06:39:57;;;;;;;8.93;5.32;;;3.80;65.80;;;;;;4892286;29;20052;-79
2022/01/12 06:42:24;;;;;;;9.00;4.30;;;4.00;67.40;;;;;;4902480;29;20025;-79
2022/01/12 06:44:50;;;;;;;6.45;3.70;;;4.10;64.50;;;;;;4882789;28;20021;-80
2022/01/12 06:47:21;;;;;;;5.20;3.20;;;4.10;65.30;;;;;;4883306;28;20052;-79
2022/01/12 06:49:46;;;;;;;7.45;4.40;;;4.00;64.30;;;;;;4875235;29;20028;-80
2022/01/12 06:52:15;;;;;;;8.50;4.38;;;4.10;64.40;;;;;;4887671;28;20389;-80
2022/01/12 06:54:40;;;;;;;12.52;7.85;;;4.10;65.10;;;;;;4892106;28;20029;-79
2022/01/12 06:57:06;;;;;;;7.05;4.05;;;4.00;65.30;;;;;;4886751;29;20044;-79
2022/01/12 06:59:32;;;;;;;5.53;3.63;;;4.00;65.70;;;;;;4873473;29;20029;-84
2022/01/12 07:01:58;;;;;;;22.70;9.55;;;3.90;64.90;;;;;;4889053;28;20032;-80
2022/01/12 07:04:25;;;;;;;7.18;4.40;;;3.80;66.80;;;;;;4892168;29;20391;-80
2022/01/12 07:06:51;;;;;;;7.40;4.15;;;3.80;67.40;;;;;;4889150;29;20031;-80
2022/01/12 07:09:17;;;;;;;7.28;4.15;;;3.70;68.60;;;;;;4881480;29;20033;-79
2022/01/12 07:11:43;;;;;;;8.55;5.70;;;3.80;67.90;;;;;;4879830;29;20278;-80
2022/01/12 07:14:09;;;;;;;10.02;5.90;;;3.70;70.70;;;;;;4889277;29;20029;-80
2022/01/12 07:16:35;;;;;;;10.02;4.82;;;3.60;72.30;;;;;;4892672;28;20033;-78
2022/01/12 07:19:00;;;;;;;8.95;5.55;;;3.50;72.70;;;;;;4881764;29;20041;-79
2022/01/12 07:21:28;;;;;;;8.05;5.60;;;3.50;73.40;;;;;;4878545;28;20033;-79
2022/01/12 07:23:56;;;;;;;7.10;5.10;;;3.50;74.00;;;;;;4887705;29;20039;-79
2022/01/12 07:26:27;;;;;;;11.70;4.65;;;3.40;73.70;;;;;;4890816;28;20158;-80
2022/01/12 07:28:53;;;;;;;8.10;4.18;;;3.50;73.30;;;;;;4888205;29;20047;-80
2022/01/12 07:31:19;;;;;;;7.03;4.03;;;3.50;71.20;;;;;;4891693;29;20032;-79
2022/01/12 07:33:45;;;;;;;5.72;4.35;;;3.60;70.80;;;;;;4887120;29;20039;-80
2022/01/12 07:36:12;;;;;;;8.25;4.50;;;3.80;69.50;;;;;;4892002;29;20092;-80
2022/01/12 07:38:38;;;;;;;8.70;5.00;;;3.90;69.40;;;;;;4870281;28;20032;-80
2022/01/12 07:41:04;;;;;;;12.32;6.22;;;3.90;71.00;;;;;;4891679;29;20021;-80
2022/01/12 07:43:29;;;;;;;11.05;5.38;;;3.90;74.70;;;;;;4882455;28;20064;-80
2022/01/12 07:45:55;;;;;;;6.57;4.22;;;3.80;71.70;;;;;;4876877;28;20029;-80
2022/01/12 07:48:21;;;;;;;5.70;4.22;;;3.90;70.00;;;;;;4868935;29;20469;-80
2022/01/12 07:50:47;;;;;;;16.05;9.10;;;3.90;71.40;;;;;;4893689;28;20500;-80
2022/01/12 07:53:12;;;;;;;8.30;4.38;;;4.00;71.20;;;;;;4887613;29;20087;-80
2022/01/12 07:55:38;;;;;;;8.73;3.78;;;4.10;68.50;;;;;;4893070;29;20472;-79
2022/01/12 07:58:04;;;;;;;7.65;4.82;;;4.20;66.50;;;;;;4866160;29;20044;-80
2022/01/12 08:00:30;;;;;;;16.58;8.95;;;4.40;67.10;;;;;;4875914;29;20033;-80
2022/01/12 08:02:56;;;;;;;10.52;4.78;;;4.40;70.50;;;;;;4881374;29;20065;-79
2022/01/12 08:05:22;;;;;;;10.38;4.75;;;4.40;69.10;;;;;;4877306;28;20496;-79
2022/01/12 08:07:48;;;;;;;9.68;4.25;;;4.50;67.10;;;;;;4884223;29;20056;-79
2022/01/12 08:10:15;;;;;;;7.38;4.07;;;4.50;68.10;;;;;;4891634;29;20021;-79
2022/01/12 08:12:42;;;;;;;5.88;3.88;;;4.60;65.50;;;;;;4869777;29;20041;-80
2022/01/12 08:15:09;;;;;;;5.95;4.07;;;4.60;65.10;;;;;;4891470;28;20369;-80
2022/01/12 08:17:35;;;;;;;6.68;4.07;;;4.70;65.70;;;;;;4889517;28;20051;-80
2022/01/12 08:20:06;;;;;;;8.30;4.20;;;4.70;65.00;;;;;;4876867;28;20108;-80
2022/01/12 08:22:32;;;;;;;8.23;4.28;;;4.70;68.70;;;;;;4866326;29;20037;-79
2022/01/12 08:24:57;;;;;;;6.45;3.88;;;4.80;67.30;;;;;;4891326;28;20037;-80
2022/01/12 08:27:23;;;;;;;7.20;3.55;;;4.80;65.50;;;;;;4885134;28;20079;-79
2022/01/12 08:30:01;;;;;;;6.40;3.70;;;4.80;62.90;;;;;;4887813;28;20040;-80
2022/01/12 08:32:28;;;;;;;6.45;3.78;;;5.00;65.70;;;;;;4921646;28;20036;-80
2022/01/12 08:35:00;;;;;;;8.02;3.20;;;5.10;64.70;;;;;;4943061;28;20118;-79
2022/01/12 08:37:26;;;;;;;4.13;3.00;;;5.10;64.20;;;;;;4909415;28;20036;-80
2022/01/12 08:39:55;;;;;;;9.00;4.00;;;5.20;64.20;;;;;;4874455;28;20443;-80
2022/01/12 08:42:21;;;;;;;7.32;4.05;;;5.20;66.20;;;;;;4887176;29;20036;-80
2022/01/12 08:44:59;;;;;;;8.07;4.32;;;5.20;64.40;;;;;;4890471;28;20067;-80
2022/01/12 08:47:25;;;;;;;7.93;4.18;;;5.20;64.40;;;;;;4887264;28;20047;-80
2022/01/12 08:49:51;;;;;;;8.43;4.15;;;5.20;65.00;;;;;;4891065;28;20064;-79
2022/01/12 08:52:17;;;;;;;6.03;3.67;;;5.30;64.90;;;;;;4885309;28;20075;-80
2022/01/12 08:54:43;;;;;;;5.85;4.03;;;5.40;66.70;;;;;;4890655;28;20376;-79
2022/01/12 08:57:09;;;;;;;5.85;4.00;;;5.40;63.90;;;;;;4885979;29;20120;-80
2022/01/12 08:59:35;;;;;;;8.90;3.88;;;5.40;63.20;;;;;;4890448;29;20453;-80
2022/01/12 09:02:01;;;;;;;4.60;3.38;;;5.50;62.80;;;;;;4869453;29;20029;-78
2022/01/12 09:04:27;;;;;;;7.28;4.93;;;5.50;63.80;;;;;;4889832;29;20508;-80
2022/01/12 09:06:55;;;;;;;6.97;4.20;;;5.50;65.30;;;;;;4870699;29;20039;-80
2022/01/12 09:09:22;;;;;;;9.77;4.25;;;5.50;65.00;;;;;;4889103;29;20021;-80
2022/01/12 09:11:48;;;;;;;4.45;3.40;;;5.50;63.70;;;;;;4887848;28;20171;-79
2022/01/12 09:14:15;;;;;;;5.38;3.80;;;5.50;64.40;;;;;;4892399;29;20112;-80
2022/01/12 09:16:41;;;;;;;8.60;3.60;;;5.60;62.70;;;;;;4896107;28;20033;-81
2022/01/12 09:19:09;;;;;;;5.68;3.53;;;5.60;62.30;;;;;;4876613;29;20033;-81
2022/01/12 09:21:35;;;;;;;6.47;3.63;;;5.60;60.50;;;;;;4895716;28;20399;-80
2022/01/12 09:24:01;;;;;;;8.27;4.32;;;5.70;63.20;;;;;;4895051;28;20036;-79
2022/01/12 09:26:27;;;;;;;15.13;6.05;;;5.80;60.00;;;;;;4894196;28;20021;-80
2022/01/12 09:28:56;;;;;;;7.25;4.13;;;5.80;62.60;;;;;;4875908;29;20039;-79
2022/01/12 09:31:23;;;;;;;5.65;3.60;;;5.80;60.60;;;;;;4896872;28;20590;-80
2022/01/12 09:33:54;;;;;;;8.05;4.32;;;5.80;59.10;;;;;;4875455;29;20037;-80
2022/01/12 09:36:20;;;;;;;7.72;3.95;;;5.80;61.20;;;;;;4879450;29;20028;-79
2022/01/12 09:38:46;;;;;;;7.35;3.47;;;6.00;61.70;;;;;;4888129;29;20039;-80
2022/01/12 09:41:15;;;;;;;5.53;3.85;;;6.10;60.40;;;;;;4881341;29;20542;-80
2022/01/12 09:43:45;;;;;;;6.88;4.25;;;6.20;59.60;;;;;;4888702;28;20048;-80
2022/01/12 09:46:12;;;;;;;5.70;3.75;;;6.30;60.90;;;;;;4897195;28;20067;-80
2022/01/12 09:48:41;;;;;;;8.27;4.05;;;6.30;60.80;;;;;;4886455;29;20060;-79
2022/01/12 09:51:07;;;;;;;21.60;11.00;;;6.20;60.60;;;;;;4864520;29;20048;-80
2022/01/12 09:53:41;;;;;;;161.75;93.68;;;6.10;61.40;;;;;;4889987;29;20506;-80
2022/01/12 09:56:30;;;;;;;117.72;60.03;;;6.20;62.40;;;;;;4896156;29;20028;-79
2022/01/12 09:58:59;;;;;;;8.73;4.90;;;6.20;61.20;;;;;;4881935;29;20040;-80
2022/01/12 10:01:36;;;;;;;15.98;7.03;;;6.10;62.80;;;;;;4865746;29;20094;-80
2022/01/12 10:04:06;;;;;;;9.20;4.68;;;6.10;61.10;;;;;;4886869;29;20025;-80
2022/01/12 10:06:39;;;;;;;6.47;4.38;;;6.10;62.00;;;;;;4879173;29;20052;-80
2022/01/12 10:09:05;;;;;;;6.65;4.10;;;6.20;64.10;;;;;;4893937;29;20043;-80
2022/01/12 10:11:44;;;;;;;9.77;4.72;;;6.20;64.20;;;;;;4893316;28;20036;-80
2022/01/12 10:14:19;;;;;;;6.45;4.35;;;6.40;61.50;;;;;;4894733;28;20032;-80
2022/01/12 10:16:54;;;;;;;8.13;3.42;;;6.40;62.30;;;;;;4893502;28;20389;-79
2022/01/12 10:19:33;;;;;;;30.83;18.75;;;6.50;62.30;;;;;;4884244;28;20161;-80
2022/01/12 10:22:03;;;;;;;13.85;8.63;;;6.70;58.00;;;;;;4883769;29;20025;-79
2022/01/12 10:24:29;;;;;;;178.70;102.03;;;6.80;55.90;;;;;;4893665;29;20047;-80
2022/01/12 10:26:56;;;;;;;33.25;21.75;;;6.90;56.30;;;;;;4889289;28;20036;-80
2022/01/12 10:29:33;;;;;;;5.78;4.13;;;7.00;58.10;;;;;;4874578;29;20060;-79
2022/01/12 10:32:16;;;;;;;7.00;3.47;;;7.10;56.60;;;;;;4874795;28;20073;-79
2022/01/12 10:34:47;;;;;;;4.13;2.90;;;7.00;55.70;;;;;;4878769;29;20025;-80
2022/01/12 10:37:26;;;;;;;10.40;3.97;;;7.10;57.50;;;;;;4880868;29;20035;-81
2022/01/12 10:39:53;;;;;;;6.00;3.50;;;7.20;58.60;;;;;;4892744;28;20023;-79
2022/01/12 10:42:24;;;;;;;6.97;3.15;;;7.30;58.40;;;;;;4886976;28;20554;-81
2022/01/12 10:45:02;;;;;;;6.32;3.50;;;7.40;57.10;;;;;;4880297;28;20028;-81
2022/01/12 10:47:31;;;;;;;9.05;3.58;;;7.40;57.70;;;;;;4867393;28;20037;-80
2022/01/12 10:50:10;;;;;;;6.10;3.47;;;7.50;56.10;;;;;;4892894;28;20028;-80
2022/01/12 10:52:39;;;;;;;5.65;3.58;;;7.50;57.50;;;;;;4887503;28;20569;-80
2022/01/12 10:55:11;;;;;;;5.50;3.55;;;7.50;57.80;;;;;;4875705;29;20076;-81
2022/01/12 10:57:38;;;;;;;;;;;7.50;57.10;;;;;;4871346;29;20032;-81
2022/01/12 11:00:26;;;;;;;7.40;4.32;;;7.50;57.30;;;;;;4875487;29;19907;-81
2022/01/12 11:02:53;;;;;;;5.22;3.50;;;7.50;57.90;;;;;;4887205;28;20103;-81
2022/01/12 11:05:21;;;;;;;9.85;4.88;;;7.40;57.00;;;;;;4891837;28;20106;-81
2022/01/12 11:07:48;;;;;;;5.07;3.83;;;7.40;57.40;;;;;;4887662;28;20055;-79
2022/01/12 11:10:15;;;;;;;8.57;4.55;;;7.30;57.80;;;;;;4956522;28;20037;-80
2022/01/12 11:12:42;;;;;;;7.55;4.55;;;7.30;58.30;;;;;;4869616;29;20131;-81
2022/01/12 11:15:13;;;;;;;6.57;3.58;;;7.40;58.40;;;;;;4878964;29;20029;-80
2022/01/12 11:17:40;;;;;;;5.78;3.60;;;7.50;56.20;;;;;;4868573;28;20037;-80
2022/01/12 11:20:26;;;;;;;7.65;4.30;;;7.40;57.10;;;;;;4874686;29;20130;-79
2022/01/12 11:23:01;;;;;;;6.03;3.80;;;7.50;58.40;;;;;;4886665;29;20060;-80
2022/01/12 11:25:41;;;;;;;5.10;3.00;;;7.70;56.20;;;;;;4893606;29;20064;-80
2022/01/12 11:28:24;;;;;;;3.95;3.10;;;7.90;54.40;;;;;;4885315;28;20028;-81
2022/01/12 11:30:50;;;;;;;9.65;3.83;;;7.90;55.50;;;;;;4859481;29;20029;-80
2022/01/12 11:34:02;;;;;;;8.63;4.90;;;8.10;56.40;;;;;;4885102;29;20048;-80
2022/01/12 11:36:26;;;;;;;6.43;3.55;;;7.90;56.60;;;;;;4888821;29;20043;-79
2022/01/12 11:39:03;;;;;;;9.13;4.18;;;7.70;55.60;;;;;;4887628;29;20171;-80
2022/01/12 11:41:31;;;;;;;6.53;4.10;;;7.70;57.30;;;;;;4890472;28;20037;-80
2022/01/12 11:44:09;;;;;;;8.38;4.43;;;7.80;56.10;;;;;;4888705;29;20051;-83
2022/01/12 11:46:47;;;;;;;9.15;4.88;;;7.80;57.10;;;;;;4891017;28;20032;-83
2022/01/12 11:49:24;;;;;;;13.30;5.85;;;7.80;58.30;;;;;;4884204;29;20065;-83
2022/01/12 11:51:51;;;;;;;8.95;4.78;;;7.50;59.40;;;;;;4879058;28;20397;-83
2022/01/12 11:54:22;;;;;;;7.38;4.85;;;7.40;58.60;;;;;;4889736;29;20103;-82
2022/01/12 11:56:56;;;;;;;7.90;4.75;;;7.40;59.20;;;;;;4889722;28;20029;-83
2022/01/12 11:59:26;;;;;;;8.45;5.43;;;7.40;59.20;;;;;;4883701;29;20029;-82
2022/01/12 12:02:12;;;;;;;8.85;5.53;;;7.60;60.40;;;;;;4877689;29;20033;-83
2022/01/12 12:04:38;;;;;;;9.43;4.78;;;7.60;60.70;;;;;;4889922;29;20542;-83
2022/01/12 12:07:12;;;;;;;11.90;4.07;;;7.60;60.50;;;;;;4869304;29;20041;-82
2022/01/12 12:09:50;;;;;;;8.88;4.72;;;7.60;59.60;;;;;;4905364;29;20116;-82
2022/01/12 12:12:27;;;;;;;8.20;5.32;;;7.40;59.00;;;;;;4879367;29;20056;-82
2022/01/12 12:14:56;;;;;;;8.15;4.43;;;7.30;60.10;;;;;;4864371;28;20037;-83
2022/01/12 12:17:24;;;;;;;5.95;3.92;;;7.40;58.70;;;;;;4882031;28;20496;-82
2022/01/12 12:19:51;;;;;;;6.90;4.80;;;7.50;56.90;;;;;;4890996;28;20021;-83
2022/01/12 12:22:27;;;;;;;7.72;4.70;;;7.70;58.80;;;;;;4885993;28;20172;-83
2022/01/12 12:25:00;;;;;;;8.75;5.40;;;7.70;60.80;;;;;;4873985;29;20037;-81
2022/01/12 12:27:27;;;;;;;9.40;4.93;;;7.80;59.90;;;;;;4886272;29;20152;-82
2022/01/12 12:29:54;;;;;;;8.65;4.85;;;7.60;59.70;;;;;;4890926;29;20087;-82
2022/01/12 12:32:32;;;;;;;7.85;4.80;;;7.90;59.40;;;;;;4885492;29;20131;-82
2022/01/12 12:35:13;;;;;;;8.73;4.85;;;8.50;58.20;;;;;;4881192;28;20467;-82
2022/01/12 12:37:57;;;;;;;5.65;3.97;;;9.30;57.20;;;;;;4889173;29;20611;-82
2022/01/12 12:40:38;;;;;;;7.85;4.72;;;10.70;51.90;;;;;;4875426;29;20035;-82
2022/01/12 12:43:19;;;;;;;5.55;3.92;;;13.40;51.20;;;;;;4884199;28;20063;-82
2022/01/12 12:46:09;;;;;;;5.10;3.83;;;13.50;46.90;;;;;;4875984;28;20040;-82
2022/01/12 12:48:37;;;;;;;9.73;4.57;;;13.40;47.10;;;;;;4879352;29;20033;-81
2022/01/12 12:51:13;;;;;;;5.07;3.85;;;13.60;46.80;;;;;;4854458;29;20049;-81
2022/01/12 12:53:41;;;;;;;5.40;3.65;;;14.20;46.20;;;;;;4887265;29;20033;-80
2022/01/12 12:56:13;;;;;;;7.53;3.42;;;14.00;45.30;;;;;;4890226;29;20033;-81
2022/01/12 12:58:40;;;;;;;4.95;3.60;;;13.70;45.60;;;;;;4886155;28;20024;-80
2022/01/12 13:01:10;;;;;;;5.05;3.90;;;13.10;46.10;;;;;;4891581;28;20027;-80
2022/01/12 13:03:39;;;;;;;7.95;4.40;;;13.10;45.60;;;;;;4881660;29;20037;-82
2022/01/12 13:06:06;;;;;;;7.25;3.90;;;14.50;45.50;;;;;;4874622;29;20060;-81
2022/01/12 13:08:32;;;;;;;7.13;4.40;;;15.70;45.70;;;;;;4885141;28;20174;-81
2022/01/12 13:11:08;;;;;;;6.45;4.20;;;16.10;43.40;;;;;;4891167;28;20488;-81
2022/01/12 13:13:34;;;;;;;6.93;4.53;;;13.90;45.40;;;;;;4866225;29;20033;-81
2022/01/12 13:16:00;;;;;;;7.38;4.55;;;13.70;47.40;;;;;;4877254;28;20032;-81
2022/01/12 13:18:26;;;;;;;7.88;5.10;;;13.90;47.80;;;;;;4884207;28;20106;-81
2022/01/12 13:21:07;;;;;;;8.13;4.93;;;14.80;46.70;;;;;;4891938;29;20511;-80
2022/01/12 13:23:52;;;;;;;8.70;4.65;;;13.70;47.50;;;;;;4884645;29;20028;-81
2022/01/12 13:26:34;;;;;;;10.68;4.53;;;13.20;49.10;;;;;;4889703;28;20065;-81
2022/01/12 13:29:06;;;;;;;8.38;5.55;;;13.90;48.30;;;;;;4889136;29;20028;-80
2022/01/12 13:31:32;;;;;;;7.07;5.03;;;13.60;47.70;;;;;;4888809;29;20036;-81
2022/01/12 13:34:01;;;;;;;8.05;5.25;;;12.90;49.30;;;;;;4888959;29;20025;-81
2022/01/12 13:36:32;;;;;;;7.72;5.07;;;13.10;49.40;;;;;;4872757;29;20111;-79
2022/01/12 13:39:07;;;;;;;8.00;5.27;;;12.90;49.30;;;;;;4885884;29;20098;-81
2022/01/12 13:41:38;;;;;;;12.02;5.30;;;13.10;49.10;;;;;;4888459;28;20048;-81
2022/01/12 13:44:15;;;;;;;11.27;5.60;;;13.80;48.40;;;;;;4889164;29;20024;-80
2022/01/12 13:49:30;;;;;;;21.08;5.38;;;14.50;48.10;;;;;;4882481;29;20104;-81
2022/01/12 13:52:08;;;;;;;11.70;5.75;;;13.50;48.30;;;;;;4877307;29;20532;-81
2022/01/12 13:54:37;;;;;;;8.05;5.28;;;14.00;48.50;;;;;;4882772;28;20033;-81
2022/01/12 13:57:05;;;;;;;7.28;4.93;;;14.30;48.00;;;;;;4878052;29;20037;-81
2022/01/12 13:59:42;;;;;;;8.35;5.55;;;14.40;47.60;;;;;;4877739;29;20053;-81
2022/01/12 14:02:13;;;;;;;8.20;5.90;;;15.00;47.50;;;;;;4881424;29;20033;-81
2022/01/12 14:04:42;;;;;;;9.25;5.28;;;15.50;46.30;;;;;;4892755;28;20024;-81
2022/01/12 14:07:11;;;;;;;10.00;4.70;;;14.80;46.20;;;;;;4887529;28;20033;-80
2022/01/12 14:09:42;;;;;;;8.23;4.97;;;13.50;47.80;;;;;;4893093;29;20469;-80
2022/01/12 14:12:11;;;;;;;7.93;5.18;;;14.00;47.70;;;;;;4888453;29;20033;-81
2022/01/12 14:14:53;;;;;;;8.85;6.75;;;13.30;48.10;;;;;;4892699;28;20353;-81
2022/01/12 14:17:32;;;;;;;9.57;6.47;;;13.10;49.50;;;;;;4876332;28;20029;-81
2022/01/12 14:20:04;;;;;;;8.95;5.28;;;13.70;47.90;;;;;;4892810;29;20024;-81
2022/01/12 14:22:45;;;;;;;7.05;4.32;;;13.80;47.80;;;;;;4887989;29;20021;-80
2022/01/12 14:25:12;;;;;;;10.40;5.43;;;13.70;47.20;;;;;;4892957;29;20033;-81
2022/01/12 14:27:43;;;;;;;15.75;5.70;;;13.70;47.60;;;;;;4888185;28;20115;-81
2022/01/12 14:30:11;;;;;;;9.32;5.85;;;13.10;47.40;;;;;;4892584;29;20027;-81
2022/01/12 14:32:39;;;;;;;7.90;5.53;;;12.50;48.60;;;;;;4887881;29;20044;-81
2022/01/12 14:35:08;;;;;;;8.90;5.80;;;11.20;50.60;;;;;;4892234;28;20107;-81
2022/01/12 14:37:34;;;;;;;10.93;5.57;;;10.20;52.50;;;;;;4886017;29;20373;-80
2022/01/12 14:40:01;;;;;;;8.25;5.00;;;9.70;52.90;;;;;;4879709;29;20044;-81
2022/01/12 14:42:41;;;;;;;12.05;5.18;;;9.50;53.10;;;;;;4882433;29;20024;-81
2022/01/12 14:45:13;;;;;;;14.82;5.93;;;9.30;53.80;;;;;;4892271;28;20132;-80
2022/01/12 14:47:39;;;;;;;12.97;7.97;;;9.10;54.10;;;;;;4888796;28;20028;-81
2022/01/12 14:50:05;;;;;;;8.02;5.47;;;9.20;53.80;;;;;;4892709;28;20051;-82
2022/01/12 14:52:31;;;;;;;9.18;6.00;;;9.50;53.70;;;;;;4885091;28;20053;-82
2022/01/12 14:54:57;;;;;;;10.10;5.93;;;9.40;53.90;;;;;;4880201;29;20028;-86
2022/01/12 14:57:23;;;;;;;9.40;6.20;;;9.20;54.20;;;;;;4885037;29;20119;-89